createdAt,value
2019-04-16T00:00:06.244Z,10.70
2019-04-16T00:01:28.128Z,10.70
2019-04-16T00:02:54.225Z,10.70
2019-04-16T00:04:03.755Z,10.70
2019-04-16T00:05:39.072Z,10.70
2019-04-16T00:07:00.542Z,10.70
2019-04-16T00:08:26.589Z,10.60
2019-04-16T00:09:25.295Z,10.60
2019-04-16T00:10:39.231Z,10.60
2019-04-16T00:11:48.084Z,10.60
2019-04-16T00:13:00.446Z,10.60
2019-04-16T00:14:22.870Z,10.60
2019-04-16T00:15:27.188Z,10.60
2019-04-16T00:16:31.427Z,10.60
2019-04-16T00:17:35.683Z,10.60
2019-04-16T00:18:39.919Z,10.60
2019-04-16T00:19:44.143Z,10.50
2019-04-16T00:21:13.501Z,10.50
2019-04-16T00:22:35.989Z,10.50
2019-04-16T00:24:08.237Z,10.50
2019-04-16T00:25:12.473Z,10.50
2019-04-16T00:26:16.702Z,10.50
2019-04-16T00:27:20.963Z,10.50
2019-04-16T00:28:25.214Z,10.50
2019-04-16T00:29:32.619Z,10.40
2019-04-16T00:30:36.289Z,10.50
2019-04-16T00:31:40.847Z,10.50
2019-04-16T00:32:45.023Z,10.40
2019-04-16T00:33:49.258Z,10.40
2019-04-16T00:34:53.490Z,10.40
2019-04-16T00:35:57.715Z,10.40
2019-04-16T00:37:01.939Z,10.40
2019-04-16T00:38:06.194Z,10.40
2019-04-16T00:39:10.422Z,10.40
2019-04-16T00:40:14.649Z,10.40
2019-04-16T00:41:18.892Z,10.40
2019-04-16T00:42:23.498Z,10.40
2019-04-16T00:43:27.767Z,10.40
2019-04-16T00:44:32.006Z,10.40
2019-04-16T00:45:36.232Z,10.40
2019-04-16T00:46:40.475Z,10.30
2019-04-16T00:47:47.883Z,10.30
2019-04-16T00:48:51.095Z,10.40
2019-04-16T00:49:57.976Z,10.30
2019-04-16T00:51:01.270Z,10.30
2019-04-16T00:52:06.768Z,10.30
2019-04-16T00:53:11.555Z,10.30
2019-04-16T00:54:15.802Z,10.30
2019-04-16T00:55:20.027Z,10.30
2019-04-16T00:56:24.270Z,10.30
2019-04-16T00:57:28.438Z,10.30
2019-04-16T00:58:32.690Z,10.20
2019-04-16T00:59:36.923Z,10.20
2019-04-16T01:00:41.155Z,10.20
2019-04-16T01:01:45.384Z,10.20
2019-04-16T01:02:49.609Z,10.20
2019-04-16T01:03:53.863Z,10.10
2019-04-16T01:04:58.285Z,10.10
2019-04-16T01:06:07.003Z,10.10
2019-04-16T01:07:08.435Z,10.10
2019-04-16T01:08:12.887Z,10.10
2019-04-16T01:09:17.137Z,10.10
2019-04-16T01:10:21.373Z,10.10
2019-04-16T01:11:25.622Z,10.10
2019-04-16T01:12:29.910Z,10.10
2019-04-16T01:13:34.267Z,10.10
2019-04-16T01:14:38.486Z,10.10
2019-04-16T01:15:42.711Z,10.10
2019-04-16T01:16:46.914Z,10.10
2019-04-16T01:17:51.231Z,10.00
2019-04-16T01:18:55.479Z,10.00
2019-04-16T01:19:59.713Z,10.00
2019-04-16T01:21:04.180Z,9.90
2019-04-16T01:22:08.390Z,9.90
2019-04-16T01:23:15.189Z,9.90
2019-04-16T01:24:20.292Z,9.90
2019-04-16T01:25:24.423Z,9.90
2019-04-16T01:26:28.690Z,9.90
2019-04-16T01:27:39.502Z,9.90
2019-04-16T01:28:49.975Z,9.90
2019-04-16T01:29:54.183Z,9.90
2019-04-16T01:31:15.965Z,9.90
2019-04-16T01:32:33.341Z,9.90
2019-04-16T01:33:59.576Z,9.80
2019-04-16T01:35:29.042Z,9.80
2019-04-16T01:37:04.501Z,9.80
2019-04-16T01:38:33.204Z,9.80
2019-04-16T01:39:37.593Z,9.80
2019-04-16T01:41:03.718Z,9.80
2019-04-16T01:42:08.154Z,9.80
2019-04-16T01:43:12.475Z,9.80
2019-04-16T01:44:16.726Z,9.80
2019-04-16T01:45:20.955Z,9.80
2019-04-16T01:46:25.191Z,9.70
2019-04-16T01:47:29.459Z,9.70
2019-04-16T01:48:33.704Z,9.70
2019-04-16T01:49:42.148Z,9.70
2019-04-16T01:50:45.469Z,9.70
2019-04-16T01:51:49.699Z,9.70
2019-04-16T01:52:53.921Z,9.70
2019-04-16T01:53:58.078Z,9.70
2019-04-16T01:55:02.626Z,9.60
2019-04-16T01:56:06.884Z,9.60
2019-04-16T01:57:11.120Z,9.60
2019-04-16T01:58:15.325Z,9.60
2019-04-16T01:59:19.582Z,9.60
2019-04-16T02:00:23.810Z,9.60
2019-04-16T02:01:28.043Z,9.60
2019-04-16T02:02:32.266Z,9.50
2019-04-16T02:03:36.492Z,9.50
2019-04-16T02:04:40.746Z,9.50
2019-04-16T02:05:44.970Z,9.50
2019-04-16T02:06:49.209Z,9.50
2019-04-16T02:07:53.442Z,9.50
2019-04-16T02:09:01.723Z,9.60
2019-04-16T02:10:06.282Z,9.50
2019-04-16T02:11:10.892Z,9.50
2019-04-16T02:12:15.362Z,9.50
2019-04-16T02:13:19.602Z,9.50
2019-04-16T02:14:23.829Z,9.50
2019-04-16T02:15:28.118Z,9.50
2019-04-16T02:16:32.346Z,9.50
2019-04-16T02:17:36.594Z,9.40
2019-04-16T02:18:40.800Z,9.40
2019-04-16T02:19:45.142Z,9.40
2019-04-16T02:20:49.406Z,9.40
2019-04-16T02:21:53.630Z,9.40
2019-04-16T02:22:57.903Z,9.40
2019-04-16T02:24:02.147Z,9.40
2019-04-16T02:25:06.421Z,9.40
2019-04-16T02:26:10.644Z,9.40
2019-04-16T02:27:14.867Z,9.40
2019-04-16T02:28:21.617Z,9.30
2019-04-16T02:29:29.767Z,9.30
2019-04-16T02:30:37.353Z,9.30
2019-04-16T02:31:36.807Z,9.30
2019-04-16T02:32:41.038Z,9.30
2019-04-16T02:33:45.263Z,9.30
2019-04-16T02:34:50.675Z,9.30
2019-04-16T02:35:54.935Z,9.30
2019-04-16T02:37:02.482Z,9.30
2019-04-16T02:38:11.088Z,9.20
2019-04-16T02:39:10.933Z,9.30
2019-04-16T02:40:18.405Z,9.20
2019-04-16T02:41:23.275Z,9.20
2019-04-16T02:42:30.634Z,9.20
2019-04-16T02:43:39.785Z,9.20
2019-04-16T02:44:38.743Z,9.20
2019-04-16T02:45:42.959Z,9.20
2019-04-16T02:46:47.203Z,9.20
2019-04-16T02:47:51.467Z,9.20
2019-04-16T02:48:55.690Z,9.20
2019-04-16T02:50:01.252Z,9.20
2019-04-16T02:51:27.194Z,9.20
2019-04-16T02:53:05.657Z,9.20
2019-04-16T02:54:21.102Z,9.20
2019-04-16T02:55:43.879Z,9.10
2019-04-16T02:57:09.499Z,9.10
2019-04-16T02:58:18.367Z,9.00
2019-04-16T02:59:31.791Z,9.00
2019-04-16T03:00:54.977Z,9.00
2019-04-16T03:02:23.817Z,9.00
2019-04-16T03:03:33.535Z,9.10
2019-04-16T03:04:42.360Z,9.10
2019-04-16T03:05:49.848Z,9.00
2019-04-16T03:06:54.100Z,9.00
2019-04-16T03:08:01.343Z,9.00
2019-04-16T03:09:08.837Z,9.00
2019-04-16T03:10:13.633Z,9.00
2019-04-16T03:11:18.116Z,9.00
2019-04-16T03:12:22.476Z,9.00
2019-04-16T03:13:26.877Z,9.00
2019-04-16T03:14:31.129Z,9.00
2019-04-16T03:15:48.964Z,9.00
2019-04-16T03:17:30.425Z,9.00
2019-04-16T03:18:39.283Z,9.00
2019-04-16T03:19:44.543Z,9.00
2019-04-16T03:20:48.767Z,8.90
2019-04-16T03:21:55.597Z,8.90
2019-04-16T03:22:58.924Z,8.90
2019-04-16T03:24:08.029Z,8.90
2019-04-16T03:25:12.567Z,8.90
2019-04-16T03:26:17.597Z,8.90
2019-04-16T03:27:22.206Z,8.90
2019-04-16T03:28:27.328Z,8.90
2019-04-16T03:29:32.362Z,8.80
2019-04-16T03:30:42.126Z,8.90
2019-04-16T03:31:42.467Z,8.80
2019-04-16T03:32:52.485Z,8.80
2019-04-16T03:33:56.821Z,8.80
2019-04-16T03:35:01.035Z,8.80
2019-04-16T03:36:05.388Z,8.80
2019-04-16T03:37:09.623Z,8.80
2019-04-16T03:38:13.896Z,8.80
2019-04-16T03:39:18.131Z,8.80
2019-04-16T03:40:25.597Z,8.80
2019-04-16T03:41:28.231Z,8.70
2019-04-16T03:42:32.480Z,8.80
2019-04-16T03:43:36.689Z,8.70
2019-04-16T03:44:40.912Z,8.70
2019-04-16T03:45:45.139Z,8.70
2019-04-16T03:46:49.397Z,8.70
2019-04-16T03:47:53.688Z,8.70
2019-04-16T03:48:58.010Z,8.70
2019-04-16T03:50:02.239Z,8.70
2019-04-16T03:51:06.498Z,8.70
2019-04-16T03:52:10.713Z,8.70
2019-04-16T03:53:17.514Z,8.70
2019-04-16T03:54:22.389Z,8.70
2019-04-16T03:55:26.743Z,8.70
2019-04-16T03:56:31.290Z,8.60
2019-04-16T03:57:35.596Z,8.60
2019-04-16T03:58:39.851Z,8.60
2019-04-16T03:59:44.084Z,8.60
2019-04-16T04:00:48.321Z,8.60
2019-04-16T04:01:52.539Z,8.60
2019-04-16T04:02:56.816Z,8.60
2019-04-16T04:04:01.114Z,8.50
2019-04-16T04:05:06.863Z,8.50
2019-04-16T04:06:11.588Z,8.50
2019-04-16T04:07:15.948Z,8.50
2019-04-16T04:08:20.183Z,8.50
2019-04-16T04:09:24.418Z,8.50
2019-04-16T04:10:31.416Z,8.50
2019-04-16T04:11:35.042Z,8.50
2019-04-16T04:12:39.283Z,8.40
2019-04-16T04:13:43.556Z,8.40
2019-04-16T04:14:47.837Z,8.40
2019-04-16T04:15:54.897Z,8.30
2019-04-16T04:16:58.075Z,8.30
2019-04-16T04:18:02.300Z,8.30
2019-04-16T04:19:06.625Z,8.30
2019-04-16T04:20:10.859Z,8.30
2019-04-16T04:21:15.104Z,8.30
2019-04-16T04:22:19.337Z,8.30
2019-04-16T04:23:25.526Z,8.30
2019-04-16T04:24:31.362Z,8.30
2019-04-16T04:25:36.372Z,8.30
2019-04-16T04:26:42.299Z,8.30
2019-04-16T04:27:47.633Z,8.30
2019-04-16T04:28:52.646Z,8.30
2019-04-16T04:29:57.374Z,8.30
2019-04-16T04:31:01.959Z,8.30
2019-04-16T04:32:06.279Z,8.30
2019-04-16T04:33:12.080Z,8.20
2019-04-16T04:34:17.407Z,8.20
2019-04-16T04:35:22.368Z,8.20
2019-04-16T04:36:28.127Z,8.20
2019-04-16T04:37:32.649Z,8.20
2019-04-16T04:38:37.425Z,8.20
2019-04-16T04:39:44.099Z,8.20
2019-04-16T04:40:50.914Z,8.20
2019-04-16T04:41:56.408Z,8.20
2019-04-16T04:43:00.921Z,8.20
2019-04-16T04:44:05.989Z,8.20
2019-04-16T04:45:10.568Z,8.20
2019-04-16T04:46:15.607Z,8.20
2019-04-16T04:47:20.267Z,8.20
2019-04-16T04:48:24.590Z,8.20
2019-04-16T04:49:30.404Z,8.20
2019-04-16T04:50:35.431Z,8.20
2019-04-16T04:51:43.517Z,8.20
2019-04-16T04:52:46.867Z,8.20
2019-04-16T04:53:51.382Z,8.20
2019-04-16T04:54:55.752Z,8.20
2019-04-16T04:55:59.986Z,8.20
2019-04-16T04:57:04.208Z,8.20
2019-04-16T04:58:08.536Z,8.20
2019-04-16T04:59:12.891Z,8.30
2019-04-16T05:00:18.559Z,8.20
2019-04-16T05:01:22.799Z,8.30
2019-04-16T05:02:27.048Z,8.30
2019-04-16T05:03:50.291Z,8.30
2019-04-16T05:05:13.233Z,8.30
2019-04-16T05:06:20.517Z,8.30
2019-04-16T05:07:25.644Z,8.30
2019-04-16T05:08:30.596Z,8.30
2019-04-16T05:09:36.479Z,8.30
2019-04-16T05:10:43.222Z,8.30
2019-04-16T05:11:48.519Z,8.40
2019-04-16T05:12:53.539Z,8.40
2019-04-16T05:13:58.092Z,8.40
2019-04-16T05:15:03.889Z,8.40
2019-04-16T05:16:08.391Z,8.40
2019-04-16T05:17:12.614Z,8.40
2019-04-16T05:18:16.845Z,8.50
2019-04-16T05:19:21.071Z,8.50
2019-04-16T05:20:25.337Z,8.50
2019-04-16T05:21:29.571Z,8.50
2019-04-16T05:22:33.796Z,8.50
2019-04-16T05:23:38.027Z,8.60
2019-04-16T05:24:42.259Z,8.60
2019-04-16T05:25:46.526Z,8.70
2019-04-16T05:26:50.787Z,8.70
2019-04-16T05:27:55.016Z,8.70
2019-04-16T05:29:16.084Z,8.70
2019-04-16T05:30:19.922Z,8.80
2019-04-16T05:31:25.651Z,8.70
2019-04-16T05:32:32.740Z,8.80
2019-04-16T05:33:37.424Z,8.90
2019-04-16T05:34:40.811Z,9.00
2019-04-16T05:35:45.066Z,9.00
2019-04-16T05:36:49.298Z,9.00
2019-04-16T05:37:53.516Z,9.10
2019-04-16T05:38:57.751Z,9.10
2019-04-16T05:40:01.980Z,9.10
2019-04-16T05:41:13.191Z,9.20
2019-04-16T05:42:12.103Z,9.20
2019-04-16T05:43:16.342Z,9.30
2019-04-16T05:44:20.635Z,9.30
2019-04-16T05:45:24.955Z,9.40
2019-04-16T05:46:29.223Z,9.50
2019-04-16T05:47:33.465Z,9.60
2019-04-16T05:48:37.681Z,9.60
2019-04-16T05:49:41.874Z,9.70
2019-04-16T05:50:46.083Z,9.80
2019-04-16T05:51:50.339Z,9.90
2019-04-16T05:52:54.575Z,10.00
2019-04-16T05:54:02.059Z,10.00
2019-04-16T05:55:28.735Z,10.10
2019-04-16T05:56:37.591Z,10.20
2019-04-16T05:57:43.381Z,10.30
2019-04-16T05:58:47.624Z,10.50
2019-04-16T05:59:51.874Z,10.70
2019-04-16T06:01:06.387Z,10.90
2019-04-16T06:02:19.812Z,11.10
2019-04-16T06:03:24.051Z,11.40
2019-04-16T06:04:28.282Z,11.60
2019-04-16T06:05:32.510Z,12.00
2019-04-16T06:06:36.735Z,12.60
2019-04-16T06:07:41.028Z,13.40
2019-04-16T06:08:45.269Z,14.00
2019-04-16T06:09:49.495Z,14.50
2019-04-16T06:10:53.739Z,14.90
2019-04-16T06:11:57.967Z,15.60
2019-04-16T06:13:21.156Z,16.30
2019-04-16T06:14:50.836Z,16.70
2019-04-16T06:16:14.580Z,16.80
2019-04-16T06:17:36.697Z,17.20
2019-04-16T06:18:56.476Z,17.50
2019-04-16T06:20:20.695Z,17.60
2019-04-16T06:22:02.026Z,17.80
2019-04-16T06:23:22.698Z,18.00
2019-04-16T06:24:48.579Z,18.40
2019-04-16T06:26:01.388Z,18.80
2019-04-16T06:27:24.593Z,19.30
2019-04-16T06:28:56.425Z,19.70
2019-04-16T06:30:17.219Z,19.90
2019-04-16T06:31:55.641Z,20.40
2019-04-16T06:33:18.976Z,20.30
2019-04-16T06:34:42.183Z,19.80
2019-04-16T06:36:04.308Z,20.00
2019-04-16T06:37:26.547Z,20.10
2019-04-16T06:38:46.330Z,20.00
2019-04-16T06:40:15.668Z,20.20
2019-04-16T06:41:47.558Z,20.60
2019-04-16T06:42:54.236Z,20.40
2019-04-16T06:43:59.665Z,19.70
2019-04-16T06:45:12.287Z,19.30
2019-04-16T06:46:39.944Z,19.30
2019-04-16T06:48:13.129Z,19.50
2019-04-16T06:49:52.226Z,19.80
2019-04-16T06:51:24.244Z,20.00
2019-04-16T06:53:02.511Z,20.60
2019-04-16T06:54:29.017Z,21.30
2019-04-16T06:55:49.376Z,21.90
2019-04-16T06:57:12.955Z,22.10
2019-04-16T06:58:19.247Z,22.80
2019-04-16T06:59:31.788Z,23.00
2019-04-16T07:01:06.763Z,23.10
2019-04-16T07:02:26.925Z,23.20
2019-04-16T07:03:59.558Z,23.30
2019-04-16T07:05:21.008Z,22.80
2019-04-16T07:06:53.334Z,22.50
2019-04-16T07:08:17.738Z,22.70
2019-04-16T07:09:25.626Z,22.30
2019-04-16T07:10:43.731Z,21.50
2019-04-16T07:11:38.275Z,20.90
2019-04-16T07:12:42.536Z,20.70
2019-04-16T07:13:46.727Z,20.50
2019-04-16T07:14:51.022Z,20.50
2019-04-16T07:15:56.986Z,20.70
2019-04-16T07:17:01.143Z,20.70
2019-04-16T07:18:06.205Z,20.80
2019-04-16T07:19:11.577Z,20.80
2019-04-16T07:20:15.967Z,20.90
2019-04-16T07:21:20.194Z,21.30
2019-04-16T07:22:24.434Z,21.60
2019-04-16T07:23:28.707Z,21.80
2019-04-16T07:24:36.585Z,21.70
2019-04-16T07:25:42.243Z,21.60
2019-04-16T07:26:47.621Z,21.80
2019-04-16T07:28:11.130Z,21.80
2019-04-16T07:29:23.752Z,21.60
2019-04-16T07:30:50.030Z,22.00
2019-04-16T07:32:11.865Z,22.00
2019-04-16T07:33:26.211Z,21.90
2019-04-16T07:34:37.428Z,22.20
2019-04-16T07:35:48.241Z,22.40
2019-04-16T07:37:11.407Z,22.70
2019-04-16T07:38:35.405Z,22.80
2019-04-16T07:40:02.072Z,22.80
2019-04-16T07:41:31.266Z,23.50
2019-04-16T07:42:57.907Z,24.50
2019-04-16T07:44:17.501Z,24.80
2019-04-16T07:45:52.959Z,24.30
2019-04-16T07:47:19.715Z,24.00
2019-04-16T07:48:46.021Z,23.70
2019-04-16T07:50:03.336Z,23.20
2019-04-16T07:51:17.970Z,22.90
2019-04-16T07:52:43.930Z,22.60
2019-04-16T07:54:09.884Z,22.20
2019-04-16T07:55:35.852Z,22.30
2019-04-16T07:56:41.939Z,22.50
2019-04-16T07:57:46.171Z,22.80
2019-04-16T07:58:50.415Z,23.30
2019-04-16T07:59:54.647Z,23.90
2019-04-16T08:00:59.827Z,24.10
2019-04-16T08:02:04.071Z,24.20
2019-04-16T08:03:08.317Z,24.70
2019-04-16T08:04:12.544Z,25.20
2019-04-16T08:05:16.785Z,25.60
2019-04-16T08:06:21.059Z,25.90
2019-04-16T08:07:25.287Z,26.20
2019-04-16T08:08:29.518Z,26.40
2019-04-16T08:09:33.827Z,26.80
2019-04-16T08:10:38.207Z,27.20
2019-04-16T08:11:42.450Z,27.40
2019-04-16T08:12:50.332Z,27.50
2019-04-16T08:13:54.581Z,27.60
2019-04-16T08:15:12.799Z,27.60
2019-04-16T08:16:04.836Z,27.80
2019-04-16T08:17:09.068Z,27.80
2019-04-16T08:18:13.335Z,27.90
2019-04-16T08:19:17.575Z,27.60
2019-04-16T08:20:21.807Z,27.90
2019-04-16T08:21:26.119Z,28.20
2019-04-16T08:22:30.491Z,28.50
2019-04-16T08:23:39.136Z,29.10
2019-04-16T08:24:45.895Z,29.70
2019-04-16T08:25:58.714Z,30.00
2019-04-16T08:26:56.070Z,30.20
2019-04-16T08:28:00.304Z,30.70
2019-04-16T08:29:04.553Z,31.20
2019-04-16T08:30:10.372Z,31.40
2019-04-16T08:31:20.171Z,31.80
2019-04-16T08:32:25.981Z,32.30
2019-04-16T08:33:30.373Z,32.20
2019-04-16T08:34:34.612Z,32.00
2019-04-16T08:35:38.852Z,31.80
2019-04-16T08:36:43.112Z,31.90
2019-04-16T08:37:49.212Z,31.90
2019-04-16T08:38:53.271Z,31.70
2019-04-16T08:39:57.707Z,32.00
2019-04-16T08:41:02.032Z,32.60
2019-04-16T08:42:06.275Z,33.30
2019-04-16T08:43:10.528Z,33.10
2019-04-16T08:44:14.767Z,32.70
2019-04-16T08:45:20.619Z,33.10
2019-04-16T08:46:27.991Z,33.40
2019-04-16T08:47:30.856Z,33.60
2019-04-16T08:48:35.138Z,33.60
2019-04-16T08:49:39.368Z,33.60
2019-04-16T08:50:45.180Z,33.70
2019-04-16T08:51:49.451Z,33.20
2019-04-16T08:52:53.700Z,33.10
2019-04-16T08:53:57.940Z,33.10
2019-04-16T08:55:02.182Z,33.20
2019-04-16T08:56:06.440Z,33.20
2019-04-16T08:57:10.726Z,33.10
2019-04-16T08:58:14.960Z,32.70
2019-04-16T08:59:19.183Z,33.10
2019-04-16T09:00:23.528Z,33.40
2019-04-16T09:01:30.495Z,33.90
2019-04-16T09:02:34.732Z,34.00
2019-04-16T09:03:38.988Z,34.10
2019-04-16T09:04:43.296Z,34.00
2019-04-16T09:05:47.539Z,34.40
2019-04-16T09:06:51.869Z,34.60
2019-04-16T09:08:11.686Z,34.70
2019-04-16T09:09:18.070Z,34.90
2019-04-16T09:10:23.573Z,35.60
2019-04-16T09:11:28.471Z,36.20
2019-04-16T09:12:32.166Z,36.70
2019-04-16T09:13:44.376Z,37.00
2019-04-16T09:14:54.955Z,37.10
2019-04-16T09:15:56.122Z,36.70
2019-04-16T09:17:17.903Z,36.50
2019-04-16T09:18:40.009Z,36.90
2019-04-16T09:19:48.613Z,37.40
2019-04-16T09:20:52.855Z,37.70
2019-04-16T09:21:57.094Z,37.80
2019-04-16T09:23:01.372Z,37.90
2019-04-16T09:24:26.107Z,37.80
2019-04-16T09:25:45.835Z,37.60
2019-04-16T09:27:12.412Z,37.10
2019-04-16T09:28:26.542Z,37.10
2019-04-16T09:29:40.440Z,37.00
2019-04-16T09:31:02.802Z,37.00
2019-04-16T09:32:32.111Z,37.40
2019-04-16T09:33:51.158Z,37.20
2019-04-16T09:35:19.963Z,36.90
2019-04-16T09:36:44.611Z,37.00
2019-04-16T09:38:13.637Z,36.80
2019-04-16T09:39:42.853Z,37.20
2019-04-16T09:41:12.091Z,37.30
2019-04-16T09:42:16.324Z,36.60
2019-04-16T09:43:22.718Z,36.50
2019-04-16T09:44:31.505Z,35.90
2019-04-16T09:45:33.883Z,35.90
2019-04-16T09:46:53.844Z,35.50
2019-04-16T09:47:44.660Z,36.00
2019-04-16T09:48:50.128Z,36.70
2019-04-16T09:49:54.564Z,36.50
2019-04-16T09:50:58.807Z,36.40
2019-04-16T09:52:03.999Z,36.40
2019-04-16T09:53:08.318Z,36.40
2019-04-16T09:54:13.676Z,36.80
2019-04-16T09:55:19.334Z,37.40
2019-04-16T09:56:29.275Z,37.70
2019-04-16T09:57:33.416Z,37.60
2019-04-16T09:58:39.213Z,37.50
2019-04-16T09:59:59.296Z,37.30
2019-04-16T10:01:08.707Z,37.10
2019-04-16T10:02:19.099Z,37.10
2019-04-16T10:03:29.036Z,37.60
2019-04-16T10:04:33.246Z,37.70
2019-04-16T10:05:37.531Z,37.60
2019-04-16T10:06:41.872Z,37.70
2019-04-16T10:07:46.096Z,37.50
2019-04-16T10:08:50.341Z,37.30
2019-04-16T10:09:55.270Z,37.50
2019-04-16T10:11:02.748Z,37.40
2019-04-16T10:12:07.986Z,37.40
2019-04-16T10:13:11.308Z,36.80
2019-04-16T10:14:15.555Z,36.90
2019-04-16T10:15:19.791Z,36.50
2019-04-16T10:16:25.597Z,36.30
2019-04-16T10:17:29.858Z,36.40
2019-04-16T10:18:35.285Z,36.20
2019-04-16T10:19:43.013Z,36.30
2019-04-16T10:20:45.936Z,36.70
2019-04-16T10:21:53.221Z,37.40
2019-04-16T10:22:56.078Z,38.00
2019-04-16T10:24:18.109Z,38.00
2019-04-16T10:25:22.364Z,37.60
2019-04-16T10:26:26.592Z,37.50
2019-04-16T10:27:39.300Z,37.60
2019-04-16T10:28:44.238Z,36.90
2019-04-16T10:29:48.505Z,36.80
2019-04-16T10:30:54.493Z,37.10
2019-04-16T10:31:58.716Z,37.40
2019-04-16T10:33:02.977Z,37.60
2019-04-16T10:34:07.193Z,37.90
2019-04-16T10:35:11.449Z,38.40
2019-04-16T10:36:15.665Z,38.50
2019-04-16T10:37:20.055Z,38.80
2019-04-16T10:38:35.428Z,38.70
2019-04-16T10:39:52.605Z,38.50
2019-04-16T10:41:06.127Z,38.80
2019-04-16T10:42:38.600Z,38.80
2019-04-16T10:43:55.396Z,38.60
2019-04-16T10:45:18.576Z,38.30
2019-04-16T10:46:35.839Z,38.30
2019-04-16T10:47:50.068Z,38.40
2019-04-16T10:49:19.066Z,38.00
2019-04-16T10:50:41.258Z,38.20
2019-04-16T10:52:16.452Z,38.10
2019-04-16T10:53:45.443Z,38.30
2019-04-16T10:54:57.086Z,38.20
2019-04-16T10:56:21.074Z,37.70
2019-04-16T10:57:48.700Z,38.00
2019-04-16T10:59:10.830Z,38.00
2019-04-16T11:00:32.076Z,37.90
2019-04-16T11:02:10.677Z,37.40
2019-04-16T11:03:23.465Z,37.80
2019-04-16T11:04:43.296Z,36.80
2019-04-16T11:06:00.081Z,36.50
2019-04-16T11:07:10.471Z,36.80
2019-04-16T11:08:15.087Z,36.60
2019-04-16T11:09:19.445Z,36.50
2019-04-16T11:10:23.681Z,36.80
2019-04-16T11:11:27.958Z,36.90
2019-04-16T11:12:32.228Z,36.50
2019-04-16T11:13:39.099Z,35.90
2019-04-16T11:14:43.338Z,35.80
2019-04-16T11:15:47.606Z,35.10
2019-04-16T11:16:51.951Z,35.00
2019-04-16T11:17:56.201Z,35.30
2019-04-16T11:19:00.440Z,35.20
2019-04-16T11:20:06.112Z,35.30
2019-04-16T11:21:10.843Z,35.60
2019-04-16T11:22:15.091Z,35.70
2019-04-16T11:23:19.334Z,36.10
2019-04-16T11:24:23.564Z,36.40
2019-04-16T11:25:27.816Z,36.50
2019-04-16T11:26:32.090Z,36.90
2019-04-16T11:27:36.464Z,36.90
2019-04-16T11:28:40.696Z,36.70
2019-04-16T11:29:44.944Z,36.80
2019-04-16T11:30:51.280Z,37.10
2019-04-16T11:31:55.584Z,37.10
2019-04-16T11:33:00.187Z,37.50
2019-04-16T11:34:07.715Z,37.80
2019-04-16T11:35:12.932Z,37.80
2019-04-16T11:36:20.696Z,37.40
2019-04-16T11:37:23.929Z,36.80
2019-04-16T11:38:28.209Z,36.70
2019-04-16T11:39:32.484Z,36.70
2019-04-16T11:40:36.716Z,36.60
2019-04-16T11:41:40.963Z,37.00
2019-04-16T11:42:45.221Z,36.80
2019-04-16T11:43:49.465Z,36.30
2019-04-16T11:44:53.695Z,35.30
2019-04-16T11:45:58.037Z,35.20
2019-04-16T11:47:02.358Z,35.30
2019-04-16T11:48:06.627Z,35.60
2019-04-16T11:49:10.915Z,36.20
2019-04-16T11:50:15.171Z,36.80
2019-04-16T11:51:19.413Z,37.50
2019-04-16T11:52:23.761Z,38.00
2019-04-16T11:53:28.042Z,38.00
2019-04-16T11:54:32.280Z,38.10
2019-04-16T11:55:36.501Z,38.00
2019-04-16T11:56:42.280Z,37.70
2019-04-16T11:57:46.788Z,36.90
2019-04-16T11:58:51.072Z,36.50
2019-04-16T12:00:06.576Z,36.70
2019-04-16T12:01:06.788Z,36.80
2019-04-16T12:02:19.899Z,36.60
2019-04-16T12:03:45.895Z,36.40
2019-04-16T12:05:11.876Z,36.30
2019-04-16T12:06:33.772Z,36.60
2019-04-16T12:07:59.771Z,36.70
2019-04-16T12:09:35.177Z,36.60
2019-04-16T12:11:04.182Z,36.30
2019-04-16T12:12:22.220Z,36.80
2019-04-16T12:13:57.508Z,36.90
2019-04-16T12:15:12.874Z,36.50
2019-04-16T12:16:30.051Z,36.10
2019-04-16T12:17:52.084Z,36.00
2019-04-16T12:19:15.296Z,35.40
2019-04-16T12:20:24.384Z,35.20
2019-04-16T12:21:52.195Z,35.00
2019-04-16T12:23:24.276Z,35.20
2019-04-16T12:24:47.478Z,35.10
2019-04-16T12:26:13.476Z,34.70
2019-04-16T12:27:35.631Z,34.10
2019-04-16T12:29:07.679Z,33.90
2019-04-16T12:30:49.124Z,34.00
2019-04-16T12:32:04.150Z,33.80
2019-04-16T12:33:22.607Z,33.90
2019-04-16T12:34:51.960Z,33.50
2019-04-16T12:36:14.588Z,32.90
2019-04-16T12:37:47.735Z,32.60
2019-04-16T12:38:59.106Z,32.20
2019-04-16T12:40:37.576Z,30.90
2019-04-16T12:41:52.930Z,30.00
2019-04-16T12:43:04.754Z,29.90
2019-04-16T12:44:27.874Z,29.90
2019-04-16T12:45:41.614Z,29.80
2019-04-16T12:47:04.827Z,29.60
2019-04-16T12:48:16.179Z,28.90
2019-04-16T12:49:37.883Z,28.60
2019-04-16T12:50:53.221Z,28.30
2019-04-16T12:52:16.952Z,27.80
2019-04-16T12:53:31.945Z,27.40
2019-04-16T12:55:13.323Z,27.10
2019-04-16T12:56:40.110Z,27.00
2019-04-16T12:57:59.975Z,26.70
2019-04-16T12:59:26.119Z,26.90
2019-04-16T13:00:45.081Z,26.90
2019-04-16T13:02:04.020Z,26.70
2019-04-16T13:03:36.266Z,26.50
2019-04-16T13:04:57.589Z,26.40
2019-04-16T13:06:17.728Z,26.30
2019-04-16T13:07:29.669Z,26.30
2019-04-16T13:08:53.619Z,26.40
2019-04-16T13:10:32.100Z,26.50
2019-04-16T13:11:55.259Z,26.60
2019-04-16T13:13:07.772Z,26.70
2019-04-16T13:14:29.689Z,26.50
2019-04-16T13:15:51.502Z,26.60
2019-04-16T13:17:15.172Z,26.50
2019-04-16T13:18:29.414Z,26.60
2019-04-16T13:19:58.700Z,26.70
2019-04-16T13:21:30.747Z,26.90
2019-04-16T13:22:39.707Z,26.40
2019-04-16T13:23:57.639Z,26.00
2019-04-16T13:25:12.877Z,25.80
2019-04-16T13:26:29.161Z,25.50
2019-04-16T13:27:36.023Z,25.40
2019-04-16T13:28:40.276Z,25.00
2019-04-16T13:29:44.543Z,25.00
2019-04-16T13:30:48.780Z,24.90
2019-04-16T13:31:53.034Z,24.80
2019-04-16T13:32:57.271Z,24.90
2019-04-16T13:34:01.574Z,24.80
2019-04-16T13:35:06.110Z,24.80
2019-04-16T13:36:10.391Z,24.70
2019-04-16T13:37:14.560Z,24.70
2019-04-16T13:38:20.499Z,24.60
2019-04-16T13:39:42.496Z,24.50
2019-04-16T13:40:46.732Z,24.50
2019-04-16T13:41:50.980Z,24.40
2019-04-16T13:42:55.220Z,24.30
2019-04-16T13:44:07.926Z,24.20
2019-04-16T13:45:28.908Z,24.00
2019-04-16T13:46:34.860Z,23.90
2019-04-16T13:47:46.389Z,23.80
2019-04-16T13:49:08.095Z,23.50
2019-04-16T13:50:25.178Z,23.50
2019-04-16T13:51:29.428Z,23.50
2019-04-16T13:52:35.081Z,23.30
2019-04-16T13:53:54.027Z,23.10
2019-04-16T13:55:23.177Z,23.20
2019-04-16T13:56:34.907Z,23.20
2019-04-16T13:57:40.004Z,23.30
2019-04-16T13:59:05.951Z,23.20
2019-04-16T14:00:19.133Z,23.10
2019-04-16T14:01:26.132Z,23.10
2019-04-16T14:02:51.115Z,23.00
2019-04-16T14:03:56.354Z,23.00
2019-04-16T14:05:03.668Z,22.90
2019-04-16T14:06:09.592Z,22.80
2019-04-16T14:07:11.803Z,22.60
2019-04-16T14:08:16.472Z,22.50
2019-04-16T14:09:20.705Z,22.60
2019-04-16T14:10:24.950Z,22.70
2019-04-16T14:11:29.412Z,22.70
2019-04-16T14:12:41.769Z,22.50
2019-04-16T14:13:42.042Z,22.50
2019-04-16T14:14:46.643Z,22.40
2019-04-16T14:15:51.328Z,22.50
2019-04-16T14:16:55.583Z,22.50
2019-04-16T14:18:00.772Z,22.50
2019-04-16T14:19:06.164Z,22.50
2019-04-16T14:20:12.279Z,22.40
2019-04-16T14:21:17.047Z,22.30
2019-04-16T14:22:21.864Z,22.30
2019-04-16T14:23:26.825Z,22.20
2019-04-16T14:24:31.076Z,22.20
2019-04-16T14:25:35.344Z,22.20
2019-04-16T14:26:39.608Z,22.20
2019-04-16T14:27:43.937Z,22.30
2019-04-16T14:28:52.412Z,22.40
2019-04-16T14:29:54.147Z,22.40
2019-04-16T14:30:58.644Z,22.50
2019-04-16T14:32:02.953Z,22.60
2019-04-16T14:33:07.621Z,22.60
2019-04-16T14:34:21.799Z,22.70
2019-04-16T14:35:33.802Z,22.80
2019-04-16T14:36:37.991Z,22.70
2019-04-16T14:37:42.246Z,22.60
2019-04-16T14:38:50.197Z,22.50
2019-04-16T14:40:00.349Z,22.30
2019-04-16T14:41:04.575Z,22.30
2019-04-16T14:42:08.844Z,22.20
2019-04-16T14:43:14.675Z,22.10
2019-04-16T14:44:19.520Z,22.10
2019-04-16T14:45:33.213Z,21.90
2019-04-16T14:46:35.878Z,21.80
2019-04-16T14:47:40.226Z,21.70
2019-04-16T14:48:46.462Z,21.90
2019-04-16T14:49:51.079Z,21.90
2019-04-16T14:50:55.759Z,22.00
2019-04-16T14:52:02.001Z,22.00
2019-04-16T14:53:05.927Z,22.00
2019-04-16T14:54:15.564Z,22.00
2019-04-16T14:55:26.836Z,22.00
2019-04-16T14:56:50.059Z,22.00
2019-04-16T14:58:06.903Z,22.00
2019-04-16T14:59:30.259Z,21.90
2019-04-16T15:00:42.552Z,22.00
2019-04-16T15:01:56.287Z,22.00
2019-04-16T15:03:06.316Z,22.00
2019-04-16T15:04:40.138Z,21.90
2019-04-16T15:05:58.347Z,21.90
2019-04-16T15:07:05.352Z,21.90
2019-04-16T15:08:27.251Z,21.80
2019-04-16T15:09:40.047Z,21.80